sensor_id;sensor_type;location;lat;lon;timestamp;pressure;altitude;pressure_sealevel;temperature;humidity
24651;BME280;12783;48.824;8.662;2023-07-20T00:02:03;12186.87;;;23.85;100.00
24651;BME280;12783;48.824;8.662;2023-07-20T00:04:32;10818.81;;;23.62;100.00
24651;BME280;12783;48.824;8.662;2023-07-20T00:06:59;11163.88;;;23.80;100.00
24651;BME280;12783;48.824;8.662;2023-07-20T00:09:27;11846.66;;;23.86;100.00
24651;BME280;12783;48.824;8.662;2023-07-20T00:11:54;11161.75;;;23.72;100.00
24651;BME280;12783;48.824;8.662;2023-07-20T00:14:22;10480.88;;;23.72;100.00
24651;BME280;12783;48.824;8.662;2023-07-20T00:16:55;10483.41;;;23.82;100.00
24651;BME280;12783;48.824;8.662;2023-07-20T00:19:26;10822.19;;;23.76;100.00
24651;BME280;12783;48.824;8.662;2023-07-20T00:21:55;11167.47;;;23.94;100.00
24651;BME280;12783;48.824;8.662;2023-07-20T00:24:22;10821.81;;;23.74;100.00
24651;BME280;12783;48.824;8.662;2023-07-20T00:26:48;10820.75;;;23.70;100.00
24651;BME280;12783;48.824;8.662;2023-07-20T00:29:16;10136.72;;;23.57;100.00
24651;BME280;12783;48.824;8.662;2023-07-20T00:31:43;10475.75;;;23.52;100.00
24651;BME280;12783;48.824;8.662;2023-07-20T00:34:10;9796.47;;;23.57;100.00
24651;BME280;12783;48.824;8.662;2023-07-20T00:36:37;9796.09;;;23.55;100.00
24651;BME280;12783;48.824;8.662;2023-07-20T00:39:04;9110.44;;;23.32;100.00
24651;BME280;12783;48.824;8.662;2023-07-20T00:41:31;8429.84;;;23.30;100.00
24651;BME280;12783;48.824;8.662;2023-07-20T00:43:59;8427.84;;;23.20;100.00
24651;BME280;12783;48.824;8.662;2023-07-20T00:46:27;8768.91;;;23.26;100.00
24651;BME280;12783;48.824;8.662;2023-07-20T00:48:54;8768.25;;;23.23;100.00
24651;BME280;12783;48.824;8.662;2023-07-20T00:51:23;8090.88;;;23.34;100.00
24651;BME280;12783;48.824;8.662;2023-07-20T00:53:50;8769.59;;;23.29;100.00
24651;BME280;12783;48.824;8.662;2023-07-20T00:56:17;9109.97;;;23.30;100.00
24651;BME280;12783;48.824;8.662;2023-07-20T00:58:46;9451.09;;;23.35;100.00
24651;BME280;12783;48.824;8.662;2023-07-20T01:01:13;8426.84;;;23.16;100.00
24651;BME280;12783;48.824;8.662;2023-07-20T01:03:40;8424.84;;;23.07;100.00
24651;BME280;12783;48.824;8.662;2023-07-20T01:06:30;8429.72;;;23.29;100.00
24651;BME280;12783;48.824;8.662;2023-07-20T01:09:18;7407.94;;;23.19;100.00
24651;BME280;12783;48.824;8.662;2023-07-20T01:12:02;6383.03;;;22.88;100.00
24651;BME280;12783;48.824;8.662;2023-07-20T01:14:31;6382.56;;;22.86;100.00
24651;BME280;12783;48.824;8.662;2023-07-20T01:16:59;6382.47;;;22.85;100.00
24651;BME280;12783;48.824;8.662;2023-07-20T01:19:26;8087.19;;;23.17;100.00
24651;BME280;12783;48.824;8.662;2023-07-20T01:22:03;8776.75;;;23.61;100.00
24651;BME280;12783;48.824;8.662;2023-07-20T01:31:28;7407.94;;;23.19;100.00
24651;BME280;12783;48.824;8.662;2023-07-20T01:33:58;6384.53;;;22.96;100.00
24651;BME280;12783;48.824;8.662;2023-07-20T01:36:33;7065.56;;;23.06;100.00
24651;BME280;12783;48.824;8.662;2023-07-20T01:39:01;5702.09;;;22.77;100.00
24651;BME280;12783;48.824;8.662;2023-07-20T01:41:29;6381.53;;;22.80;100.00
24651;BME280;12783;48.824;8.662;2023-07-20T01:43:59;6384.53;;;22.96;100.00
24651;BME280;12783;48.824;8.662;2023-07-20T01:46:26;5702.19;;;22.78;100.00
24651;BME280;12783;48.824;8.662;2023-07-20T01:48:54;6043.34;;;22.87;100.00
24651;BME280;12783;48.824;8.662;2023-07-20T01:51:21;5701.38;;;22.73;100.00
24651;BME280;12783;48.824;8.662;2023-07-20T01:53:48;5361.50;;;22.70;100.00
24651;BME280;12783;48.824;8.662;2023-07-20T01:56:15;5022.19;;;22.70;100.00
24651;BME280;12783;48.824;8.662;2023-07-20T01:58:42;6381.63;;;22.81;100.00
24651;BME280;12783;48.824;8.662;2023-07-20T02:01:09;7064.97;;;23.03;100.00
24651;BME280;12783;48.824;8.662;2023-07-20T02:03:36;6723.84;;;22.95;100.00
24651;BME280;12783;48.824;8.662;2023-07-20T02:06:03;5363.56;;;22.82;100.00
24651;BME280;12783;48.824;8.662;2023-07-20T02:08:29;6042.97;;;22.85;100.00
24651;BME280;12783;48.824;8.662;2023-07-20T02:10:57;7400.78;;;22.83;100.00
24651;BME280;12783;48.824;8.662;2023-07-20T02:13:24;5703.84;;;22.87;100.00
24651;BME280;12783;48.824;8.662;2023-07-20T02:15:51;6381.91;;;22.82;100.00
24651;BME280;12783;48.824;8.662;2023-07-20T02:18:18;6041.88;;;22.79;100.00
24651;BME280;12783;48.824;8.662;2023-07-20T02:20:45;5361.66;;;22.71;100.00
24651;BME280;12783;48.824;8.662;2023-07-20T02:23:12;4682.25;;;22.66;100.00
24651;BME280;12783;48.824;8.662;2023-07-20T02:25:40;5362.19;;;22.74;100.00
24651;BME280;12783;48.824;8.662;2023-07-20T02:28:07;4341.97;;;22.59;100.00
24651;BME280;12783;48.824;8.662;2023-07-20T02:30:38;4343.50;;;22.69;100.00
24651;BME280;12783;48.824;8.662;2023-07-20T02:33:06;3322.59;;;22.44;100.00
24651;BME280;12783;48.824;8.662;2023-07-20T02:35:33;4681.28;;;22.60;100.00
24651;BME280;12783;48.824;8.662;2023-07-20T02:38:00;4341.34;;;22.55;100.00
24651;BME280;12783;48.824;8.662;2023-07-20T02:40:27;3661.69;;;22.44;100.00
24651;BME280;12783;48.824;8.662;2023-07-20T02:42:54;4340.63;;;22.50;100.00
24651;BME280;12783;48.824;8.662;2023-07-20T02:45:21;5022.34;;;22.71;100.00
24651;BME280;12783;48.824;8.662;2023-07-20T02:47:48;6040.88;;;22.73;100.00
24651;BME280;12783;48.824;8.662;2023-07-20T02:50:15;5702.72;;;22.81;100.00
24651;BME280;12783;48.824;8.662;2023-07-20T02:52:42;5704.03;;;22.88;100.00
24651;BME280;12783;48.824;8.662;2023-07-20T02:55:09;5027.69;;;23.04;100.00
24651;BME280;12783;48.824;8.662;2023-07-20T02:57:36;4009.03;;;23.01;100.00
24651;BME280;12783;48.824;8.662;2023-07-20T03:00:04;5029.50;;;23.15;100.00
24651;BME280;12783;48.824;8.662;2023-07-20T03:02:33;5706.88;;;23.05;100.00
24651;BME280;12783;48.824;8.662;2023-07-20T03:05:00;5370.63;;;23.24;100.00
24651;BME280;12783;48.824;8.662;2023-07-20T03:07:29;5709.19;;;23.18;100.00
24651;BME280;12783;48.824;8.662;2023-07-20T03:09:56;7066.97;;;23.13;100.00
24651;BME280;12783;48.824;8.662;2023-07-20T03:12:23;6722.78;;;22.89;100.00
24651;BME280;12783;48.824;8.662;2023-07-20T03:14:51;7062.06;;;22.88;100.00
24651;BME280;12783;48.824;8.662;2023-07-20T03:17:18;6384.66;;;22.97;100.00
24651;BME280;12783;48.824;8.662;2023-07-20T03:19:45;6728.03;;;23.17;100.00
24651;BME280;12783;48.824;8.662;2023-07-20T03:22:11;7064.97;;;23.03;100.00
24651;BME280;12783;48.824;8.662;2023-07-20T03:24:39;7405.50;;;23.07;100.00
24651;BME280;12783;48.824;8.662;2023-07-20T03:27:06;7074.38;;;22.96;100.00
24651;BME280;12783;48.824;8.662;2023-07-20T03:29:33;5708.22;;;23.12;100.00
24651;BME280;12783;48.824;8.662;2023-07-20T03:32:00;5708.84;;;23.16;100.00
24651;BME280;12783;48.824;8.662;2023-07-20T03:34:27;5731.75;;;23.10;100.00
24651;BME280;12783;48.824;8.662;2023-07-20T03:36:54;5740.84;;;23.02;100.00
24651;BME280;12783;48.824;8.662;2023-07-20T03:39:22;5718.56;;;23.11;100.00
24651;BME280;12783;48.824;8.662;2023-07-20T03:41:49;4347.56;;;22.95;100.00
24651;BME280;12783;48.824;8.662;2023-07-20T03:44:16;5025.34;;;22.89;100.00
24651;BME280;12783;48.824;8.662;2023-07-20T03:46:44;4685.16;;;22.84;100.00
24651;BME280;12783;48.824;8.662;2023-07-20T03:49:10;4006.72;;;22.85;100.00
24651;BME280;12783;48.824;8.662;2023-07-20T03:51:37;4685.31;;;22.85;100.00
24651;BME280;12783;48.824;8.662;2023-07-20T03:54:04;4347.72;;;22.96;100.00
24651;BME280;12783;48.824;8.662;2023-07-20T03:56:31;2649.72;;;22.84;100.00
24651;BME280;12783;48.824;8.662;2023-07-20T03:59:02;3328.09;;;22.84;100.00
24651;BME280;12783;48.824;8.662;2023-07-20T04:01:29;1971.88;;;22.87;100.00
24651;BME280;12783;48.824;8.662;2023-07-20T04:03:56;4347.63;;;22.96;100.00
24651;BME280;12783;48.824;8.662;2023-07-20T04:06:23;4206.22;;;23.08;100.00
24651;BME280;12783;48.824;8.662;2023-07-20T04:08:50;5728.66;;;23.23;100.00
24651;BME280;12783;48.824;8.662;2023-07-20T04:11:17;7465.97;;;23.30;100.00
24651;BME280;12783;48.824;8.662;2023-07-20T04:13:44;6234.72;;;23.33;100.00
24651;BME280;12783;48.824;8.662;2023-07-20T04:16:11;7881.38;;;23.36;100.00
24651;BME280;12783;48.824;8.662;2023-07-20T04:18:38;7120.25;;;23.41;100.00
24651;BME280;12783;48.824;8.662;2023-07-20T04:21:08;6705.09;;;23.64;100.00
24651;BME280;12783;48.824;8.662;2023-07-20T04:23:35;6847.34;;;23.58;100.00
24651;BME280;12783;48.824;8.662;2023-07-20T04:26:03;6788.31;;;23.55;100.00
24651;BME280;12783;48.824;8.662;2023-07-20T04:28:30;7105.28;;;23.59;100.00
24651;BME280;12783;48.824;8.662;2023-07-20T04:31:13;6234.03;;;23.73;100.00
24651;BME280;12783;48.824;8.662;2023-07-20T04:33:41;7771.72;;;23.58;100.00
24651;BME280;12783;48.824;8.662;2023-07-20T04:36:08;6365.41;;;23.65;100.00
24651;BME280;12783;48.824;8.662;2023-07-20T04:38:35;5952.16;;;23.71;100.00
24651;BME280;12783;48.824;8.662;2023-07-20T04:41:02;6211.66;;;23.67;100.00
24651;BME280;12783;48.824;8.662;2023-07-20T04:43:29;6847.25;;;23.57;100.00
24651;BME280;12783;48.824;8.662;2023-07-20T04:45:56;6886.00;;;23.65;100.00
24651;BME280;12783;48.824;8.662;2023-07-20T04:48:25;7002.69;;;23.64;100.00
24651;BME280;12783;48.824;8.662;2023-07-20T04:50:52;7575.50;;;23.73;100.00
24651;BME280;12783;48.824;8.662;2023-07-20T04:53:19;7955.72;;;23.86;100.00
24651;BME280;12783;48.824;8.662;2023-07-20T04:55:50;7563.03;;;24.03;100.00
24651;BME280;12783;48.824;8.662;2023-07-20T04:58:20;8806.06;;;24.21;100.00
24651;BME280;12783;48.824;8.662;2023-07-20T05:00:51;10212.47;;;24.49;100.00
24651;BME280;12783;48.824;8.662;2023-07-20T05:03:18;9665.13;;;24.31;100.00
24651;BME280;12783;48.824;8.662;2023-07-20T05:05:47;10873.75;;;24.73;100.00
24651;BME280;12783;48.824;8.662;2023-07-20T05:08:16;9460.13;;;24.65;100.00
24651;BME280;12783;48.824;8.662;2023-07-20T05:10:43;7199.78;;;24.48;100.00
24651;BME280;12783;48.824;8.662;2023-07-20T05:13:10;5532.44;;;24.32;100.00
24651;BME280;12783;48.824;8.662;2023-07-20T05:15:37;7191.31;;;24.32;100.00
24651;BME280;12783;48.824;8.662;2023-07-20T05:18:04;6879.13;;;24.54;100.00
24651;BME280;12783;48.824;8.662;2023-07-20T05:20:32;9596.50;;;24.90;100.00
24651;BME280;12783;48.824;8.662;2023-07-20T05:23:00;8746.91;;;24.90;100.00
24651;BME280;12783;48.824;8.662;2023-07-20T05:25:28;10052.00;;;24.68;100.00
24651;BME280;12783;48.824;8.662;2023-07-20T05:27:57;7864.63;;;24.60;100.00
24651;BME280;12783;48.824;8.662;2023-07-20T05:30:24;8063.75;;;24.83;100.00
24651;BME280;12783;48.824;8.662;2023-07-20T05:32:51;10745.91;;;24.73;100.00
24651;BME280;12783;48.824;8.662;2023-07-20T05:35:20;9197.28;;;24.79;100.00
24651;BME280;12783;48.824;8.662;2023-07-20T05:37:47;10050.56;;;24.51;100.00
24651;BME280;12783;48.824;8.662;2023-07-20T05:40:15;9276.38;;;24.53;100.00
24651;BME280;12783;48.824;8.662;2023-07-20T05:42:46;8192.91;;;24.39;100.00
24651;BME280;12783;48.824;8.662;2023-07-20T05:45:13;7020.94;;;24.31;100.00
24651;BME280;12783;48.824;8.662;2023-07-20T05:47:44;5686.88;;;24.49;100.00
24651;BME280;12783;48.824;8.662;2023-07-20T05:50:11;9688.13;;;24.72;100.00
24651;BME280;12783;48.824;8.662;2023-07-20T05:52:38;8166.00;;;24.88;100.00
24651;BME280;12783;48.824;8.662;2023-07-20T05:55:06;10275.50;;;25.21;100.00
24651;BME280;12783;48.824;8.662;2023-07-20T05:57:33;10709.34;;;25.18;100.00
24651;BME280;12783;48.824;8.662;2023-07-20T06:00:01;9760.72;;;25.19;100.00
24651;BME280;12783;48.824;8.662;2023-07-20T06:02:28;10425.53;;;25.35;100.00
24651;BME280;12783;48.824;8.662;2023-07-20T06:04:55;8595.91;;;25.30;100.00
24651;BME280;12783;48.824;8.662;2023-07-20T06:07:22;9861.94;;;25.41;100.00
24651;BME280;12783;48.824;8.662;2023-07-20T06:09:49;12101.47;;;25.58;100.00
24651;BME280;12783;48.824;8.662;2023-07-20T06:12:16;10567.00;;;25.46;100.00
24651;BME280;12783;48.824;8.662;2023-07-20T06:14:43;10542.81;;;25.66;100.00
24651;BME280;12783;48.824;8.662;2023-07-20T06:17:10;10470.59;;;25.34;100.00
24651;BME280;12783;48.824;8.662;2023-07-20T06:19:37;9648.31;;;25.40;100.00
24651;BME280;12783;48.824;8.662;2023-07-20T06:22:04;8381.41;;;25.36;100.00
24651;BME280;12783;48.824;8.662;2023-07-20T06:24:31;8347.78;;;25.40;100.00
24651;BME280;12783;48.824;8.662;2023-07-20T06:26:58;7715.22;;;25.48;100.00
24651;BME280;12783;48.824;8.662;2023-07-20T06:29:25;8589.56;;;25.25;100.00
24651;BME280;12783;48.824;8.662;2023-07-20T06:31:52;7762.97;;;25.47;100.00
24651;BME280;12783;48.824;8.662;2023-07-20T06:34:19;9745.81;;;25.91;100.00
24651;BME280;12783;48.824;8.662;2023-07-20T06:36:49;10786.09;;;25.89;100.00
24651;BME280;12783;48.824;8.662;2023-07-20T06:39:16;9115.97;;;25.90;100.00
24651;BME280;12783;48.824;8.662;2023-07-20T06:41:46;8584.94;;;25.77;100.00
24651;BME280;12783;48.824;8.662;2023-07-20T06:44:13;9609.47;;;26.01;100.00
24651;BME280;12783;48.824;8.662;2023-07-20T06:46:40;6581.28;;;25.25;100.00
24651;BME280;12783;48.824;8.662;2023-07-20T06:49:07;6345.75;;;25.18;100.00
24651;BME280;12783;48.824;8.662;2023-07-20T06:51:37;7723.38;;;25.10;100.00
24651;BME280;12783;48.824;8.662;2023-07-20T06:54:04;6909.53;;;25.42;100.00
24651;BME280;12783;48.824;8.662;2023-07-20T06:56:31;10098.00;;;25.58;100.00
24651;BME280;12783;48.824;8.662;2023-07-20T06:58:59;10907.31;;;26.04;100.00
24651;BME280;12783;48.824;8.662;2023-07-20T07:01:26;11214.06;;;25.93;100.00
24651;BME280;12783;48.824;8.662;2023-07-20T07:03:54;12734.84;;;26.27;100.00
24651;BME280;12783;48.824;8.662;2023-07-20T07:06:22;9593.50;;;25.90;100.00
24651;BME280;12783;48.824;8.662;2023-07-20T07:08:50;7636.59;;;25.67;100.00
24651;BME280;12783;48.824;8.662;2023-07-20T07:11:17;5725.91;;;25.36;100.00
24651;BME280;12783;48.824;8.662;2023-07-20T07:13:44;9833.81;;;26.24;100.00
24651;BME280;12783;48.824;8.662;2023-07-20T07:16:13;9759.19;;;26.25;100.00
24651;BME280;12783;48.824;8.662;2023-07-20T07:18:46;6013.81;;;25.08;100.00
24651;BME280;12783;48.824;8.662;2023-07-20T07:21:14;4050.06;;;25.43;100.00
24651;BME280;12783;48.824;8.662;2023-07-20T07:23:40;10616.53;;;26.15;100.00
24651;BME280;12783;48.824;8.662;2023-07-20T07:26:08;8994.91;;;25.97;100.00
24651;BME280;12783;48.824;8.662;2023-07-20T07:28:36;7663.09;;;25.80;100.00
24651;BME280;12783;48.824;8.662;2023-07-20T07:31:07;8477.59;;;25.61;100.00
24651;BME280;12783;48.824;8.662;2023-07-20T07:33:34;8778.53;;;25.12;100.00
24651;BME280;12783;48.824;8.662;2023-07-20T07:36:02;7197.47;;;25.57;100.00
24651;BME280;12783;48.824;8.662;2023-07-20T07:38:29;9284.69;;;25.81;100.00
24651;BME280;12783;48.824;8.662;2023-07-20T07:41:16;7731.06;;;25.60;100.00
24651;BME280;12783;48.824;8.662;2023-07-20T07:43:42;9848.31;;;26.07;100.00
24651;BME280;12783;48.824;8.662;2023-07-20T07:46:09;6529.06;;;25.73;100.00
24651;BME280;12783;48.824;8.662;2023-07-20T07:48:37;5073.75;;;25.36;100.00
24651;BME280;12783;48.824;8.662;2023-07-20T07:51:03;6270.69;;;25.73;100.00
24651;BME280;12783;48.824;8.662;2023-07-20T07:53:30;7851.94;;;26.41;100.00
24651;BME280;12783;48.824;8.662;2023-07-20T07:55:59;10261.44;;;26.37;100.00
24651;BME280;12783;48.824;8.662;2023-07-20T07:58:26;9232.41;;;25.86;100.00
24651;BME280;12783;48.824;8.662;2023-07-20T08:00:52;10707.09;;;25.72;100.00
24651;BME280;12783;48.824;8.662;2023-07-20T08:03:19;7997.09;;;25.83;100.00
24651;BME280;12783;48.824;8.662;2023-07-20T08:05:47;7427.91;;;26.56;100.00
24651;BME280;12783;48.824;8.662;2023-07-20T08:08:14;9298.75;;;26.42;100.00
24651;BME280;12783;48.824;8.662;2023-07-20T08:10:40;9104.69;;;25.76;100.00
24651;BME280;12783;48.824;8.662;2023-07-20T08:13:08;7212.72;;;26.21;100.00
24651;BME280;12783;48.824;8.662;2023-07-20T08:15:35;10811.19;;;26.35;100.00
24651;BME280;12783;48.824;8.662;2023-07-20T08:18:01;15927.63;;;27.89;100.00
24651;BME280;12783;48.824;8.662;2023-07-20T08:20:29;11972.09;;;26.90;100.00
24651;BME280;12783;48.824;8.662;2023-07-20T08:22:55;15535.44;;;27.05;100.00
24651;BME280;12783;48.824;8.662;2023-07-20T08:25:23;18363.34;;;27.61;100.00
24651;BME280;12783;48.824;8.662;2023-07-20T08:27:50;18047.13;;;27.90;100.00
24651;BME280;12783;48.824;8.662;2023-07-20T08:30:17;14558.00;;;27.55;100.00
24651;BME280;12783;48.824;8.662;2023-07-20T08:32:44;13933.66;;;28.34;100.00
24651;BME280;12783;48.824;8.662;2023-07-20T08:35:11;8071.31;;;26.44;100.00
24651;BME280;12783;48.824;8.662;2023-07-20T08:37:41;3685.22;;;26.34;100.00
24651;BME280;12783;48.824;8.662;2023-07-20T08:40:09;5787.31;;;26.12;100.00
24651;BME280;12783;48.824;8.662;2023-07-20T08:42:37;11816.72;;;26.89;100.00
24651;BME280;12783;48.824;8.662;2023-07-20T08:45:06;16378.47;;;26.96;100.00
24651;BME280;12783;48.824;8.662;2023-07-20T08:47:35;16225.72;;;27.35;100.00
24651;BME280;12783;48.824;8.662;2023-07-20T08:50:05;16964.91;;;27.87;100.00
24651;BME280;12783;48.824;8.662;2023-07-20T08:52:34;24796.53;;;28.13;100.00
24651;BME280;12783;48.824;8.662;2023-07-20T08:55:01;16276.16;;;27.73;100.00
24651;BME280;12783;48.824;8.662;2023-07-20T08:57:33;23593.81;;;27.29;100.00
24651;BME280;12783;48.824;8.662;2023-07-20T09:00:04;18219.00;;;28.05;100.00
24651;BME280;12783;48.824;8.662;2023-07-20T09:02:35;28727.34;;;27.86;100.00
24651;BME280;12783;48.824;8.662;2023-07-20T09:05:08;26414.03;;;27.61;100.00
24651;BME280;12783;48.824;8.662;2023-07-20T09:07:36;24758.75;;;27.62;100.00
24651;BME280;12783;48.824;8.662;2023-07-20T09:10:04;23190.91;;;27.17;100.00
24651;BME280;12783;48.824;8.662;2023-07-20T09:12:37;23369.28;;;27.90;100.00
24651;BME280;12783;48.824;8.662;2023-07-20T09:15:06;23918.47;;;28.56;100.00
24651;BME280;12783;48.824;8.662;2023-07-20T09:17:33;25555.22;;;28.52;100.00
24651;BME280;12783;48.824;8.662;2023-07-20T09:20:06;27981.38;;;29.28;100.00
24651;BME280;12783;48.824;8.662;2023-07-20T09:22:38;30904.63;;;27.61;100.00
24651;BME280;12783;48.824;8.662;2023-07-20T09:25:15;23526.53;;;27.93;100.00
24651;BME280;12783;48.824;8.662;2023-07-20T09:27:45;29682.91;;;29.03;100.00
24651;BME280;12783;48.824;8.662;2023-07-20T09:30:16;29084.22;;;28.43;100.00
24651;BME280;12783;48.824;8.662;2023-07-20T09:32:46;19163.91;;;27.36;100.00
24651;BME280;12783;48.824;8.662;2023-07-20T09:35:19;35870.91;;;26.92;100.00
24651;BME280;12783;48.824;8.662;2023-07-20T09:37:57;33753.16;;;27.46;100.00
24651;BME280;12783;48.824;8.662;2023-07-20T09:40:28;31304.72;;;27.41;100.00
24651;BME280;12783;48.824;8.662;2023-07-20T09:42:59;29563.81;;;28.53;100.00
24651;BME280;12783;48.824;8.662;2023-07-20T09:45:34;31931.97;;;27.45;100.00
24651;BME280;12783;48.824;8.662;2023-07-20T09:48:06;27481.28;;;27.24;100.00
24651;BME280;12783;48.824;8.662;2023-07-20T09:50:41;28530.78;;;27.21;100.00
24651;BME280;12783;48.824;8.662;2023-07-20T09:53:12;34016.50;;;27.84;100.00
24651;BME280;12783;48.824;8.662;2023-07-20T09:55:41;32446.13;;;27.59;100.00
24651;BME280;12783;48.824;8.662;2023-07-20T09:58:11;28530.31;;;26.75;100.00
24651;BME280;12783;48.824;8.662;2023-07-20T10:00:40;25640.03;;;26.62;100.00
24651;BME280;12783;48.824;8.662;2023-07-20T10:03:19;29198.91;;;27.58;100.00
24651;BME280;12783;48.824;8.662;2023-07-20T10:05:54;26753.53;;;27.51;100.00
24651;BME280;12783;48.824;8.662;2023-07-20T10:08:24;29640.00;;;28.30;100.00
24651;BME280;12783;48.824;8.662;2023-07-20T10:10:55;34846.59;;;28.39;100.00
24651;BME280;12783;48.824;8.662;2023-07-20T10:13:29;25839.16;;;29.25;100.00
24651;BME280;12783;48.824;8.662;2023-07-20T10:16:15;31959.22;;;28.97;100.00
24651;BME280;12783;48.824;8.662;2023-07-20T10:19:26;30952.59;;;28.59;100.00
24651;BME280;12783;48.824;8.662;2023-07-20T10:22:10;30245.75;;;27.72;100.00
24651;BME280;12783;48.824;8.662;2023-07-20T10:24:39;29146.56;;;28.64;100.00
24651;BME280;12783;48.824;8.662;2023-07-20T10:27:08;30910.25;;;28.65;100.00
24651;BME280;12783;48.824;8.662;2023-07-20T10:29:36;33058.47;;;28.27;100.00
24651;BME280;12783;48.824;8.662;2023-07-20T10:32:04;35485.22;;;26.83;100.00
24651;BME280;12783;48.824;8.662;2023-07-20T10:34:34;36384.97;;;26.59;100.00
24651;BME280;12783;48.824;8.662;2023-07-20T10:37:01;35049.53;;;26.58;100.00
24651;BME280;12783;48.824;8.662;2023-07-20T10:39:31;36052.03;;;26.97;100.00
24651;BME280;12783;48.824;8.662;2023-07-20T10:42:09;33109.25;;;27.15;100.00
24651;BME280;12783;48.824;8.662;2023-07-20T10:44:38;29453.75;;;27.46;100.00
24651;BME280;12783;48.824;8.662;2023-07-20T10:47:12;42442.03;;;28.51;100.00
24651;BME280;12783;48.824;8.662;2023-07-20T10:49:58;42138.47;;;29.65;100.00
24651;BME280;12783;48.824;8.662;2023-07-20T10:52:37;41792.94;;;30.14;100.00
24651;BME280;12783;48.824;8.662;2023-07-20T10:55:14;46468.78;;;30.24;100.00
24651;BME280;12783;48.824;8.662;2023-07-20T10:57:42;44357.59;;;28.78;100.00
24651;BME280;12783;48.824;8.662;2023-07-20T11:00:18;42764.47;;;29.54;100.00
24651;BME280;12783;48.824;8.662;2023-07-20T11:02:49;37534.94;;;29.57;100.00
24651;BME280;12783;48.824;8.662;2023-07-20T11:05:35;38617.13;;;29.57;100.00
24651;BME280;12783;48.824;8.662;2023-07-20T11:08:11;44961.25;;;29.90;100.00
24651;BME280;12783;48.824;8.662;2023-07-20T11:10:39;41689.22;;;29.51;100.00
24651;BME280;12783;48.824;8.662;2023-07-20T11:13:21;45292.53;;;29.16;100.00
24651;BME280;12783;48.824;8.662;2023-07-20T11:18:26;39726.25;;;29.41;100.00
24651;BME280;12783;48.824;8.662;2023-07-20T11:20:54;38246.06;;;30.35;100.00
24651;BME280;12783;48.824;8.662;2023-07-20T11:23:21;42897.00;;;30.50;100.00
24651;BME280;12783;48.824;8.662;2023-07-20T11:25:49;42339.03;;;29.65;100.00
24651;BME280;12783;48.824;8.662;2023-07-20T11:28:16;37150.44;;;29.01;100.00
24651;BME280;12783;48.824;8.662;2023-07-20T11:30:43;42085.59;;;29.38;100.00
24651;BME280;12783;48.824;8.662;2023-07-20T11:33:10;42900.47;;;29.09;100.00
24651;BME280;12783;48.824;8.662;2023-07-20T11:35:45;44804.31;;;29.05;100.00
24651;BME280;12783;48.824;8.662;2023-07-20T11:38:16;42849.38;;;28.45;100.00
24651;BME280;12783;48.824;8.662;2023-07-20T11:40:46;45263.19;;;29.26;100.00
24651;BME280;12783;48.824;8.662;2023-07-20T11:43:14;40999.78;;;29.94;100.00
24651;BME280;12783;48.824;8.662;2023-07-20T11:45:45;41122.00;;;29.83;100.00
24651;BME280;12783;48.824;8.662;2023-07-20T11:48:16;39822.75;;;29.17;100.00
24651;BME280;12783;48.824;8.662;2023-07-20T11:50:43;29839.69;;;29.91;100.00
24651;BME280;12783;48.824;8.662;2023-07-20T11:53:11;39935.44;;;28.92;100.00
24651;BME280;12783;48.824;8.662;2023-07-20T11:55:40;37448.47;;;27.98;100.00
24651;BME280;12783;48.824;8.662;2023-07-20T11:58:09;38096.00;;;27.27;100.00
24651;BME280;12783;48.824;8.662;2023-07-20T12:00:38;39188.16;;;27.53;100.00
24651;BME280;12783;48.824;8.662;2023-07-20T12:03:06;41641.25;;;27.92;100.00
24651;BME280;12783;48.824;8.662;2023-07-20T12:05:34;50902.06;;;27.66;100.00
24651;BME280;12783;48.824;8.662;2023-07-20T12:08:21;43577.28;;;28.28;100.00
24651;BME280;12783;48.824;8.662;2023-07-20T12:10:48;46336.75;;;29.00;100.00
24651;BME280;12783;48.824;8.662;2023-07-20T12:13:16;51774.47;;;29.01;100.00
24651;BME280;12783;48.824;8.662;2023-07-20T12:15:43;50321.06;;;28.29;100.00
24651;BME280;12783;48.824;8.662;2023-07-20T12:18:11;46188.72;;;28.98;100.00
24651;BME280;12783;48.824;8.662;2023-07-20T12:20:38;46630.53;;;28.68;100.00
24651;BME280;12783;48.824;8.662;2023-07-20T12:23:11;47122.53;;;28.47;100.00
24651;BME280;12783;48.824;8.662;2023-07-20T12:25:46;40580.78;;;28.68;100.00
24651;BME280;12783;48.824;8.662;2023-07-20T12:28:19;46168.72;;;29.26;100.00
24651;BME280;12783;48.824;8.662;2023-07-20T12:30:46;46621.84;;;29.36;100.00
24651;BME280;12783;48.824;8.662;2023-07-20T12:33:14;43328.31;;;29.93;100.00
24651;BME280;12783;48.824;8.662;2023-07-20T12:35:43;43796.31;;;29.92;100.00
24651;BME280;12783;48.824;8.662;2023-07-20T12:38:10;41448.31;;;30.72;100.00
24651;BME280;12783;48.824;8.662;2023-07-20T12:40:37;48154.81;;;30.94;100.00
24651;BME280;12783;48.824;8.662;2023-07-20T12:43:04;47159.63;;;30.81;100.00
24651;BME280;12783;48.824;8.662;2023-07-20T12:45:31;49443.94;;;31.18;100.00
24651;BME280;12783;48.824;8.662;2023-07-20T12:47:59;47181.03;;;30.22;100.00
24651;BME280;12783;48.824;8.662;2023-07-20T12:50:27;46380.09;;;28.86;100.00
24651;BME280;12783;48.824;8.662;2023-07-20T12:52:53;46910.75;;;29.12;100.00
24651;BME280;12783;48.824;8.662;2023-07-20T12:55:20;45804.00;;;30.05;100.00
24651;BME280;12783;48.824;8.662;2023-07-20T12:57:47;41158.13;;;30.47;100.00
24651;BME280;12783;48.824;8.662;2023-07-20T13:00:15;48129.47;;;28.84;100.00
24651;BME280;12783;48.824;8.662;2023-07-20T13:02:43;46074.03;;;29.23;100.00
24651;BME280;12783;48.824;8.662;2023-07-20T13:05:10;46560.56;;;29.48;100.00
24651;BME280;12783;48.824;8.662;2023-07-20T13:07:38;44714.28;;;30.34;100.00
24651;BME280;12783;48.824;8.662;2023-07-20T13:10:10;48658.41;;;30.85;100.00
24651;BME280;12783;48.824;8.662;2023-07-20T13:12:38;50458.50;;;30.46;100.00
24651;BME280;12783;48.824;8.662;2023-07-20T13:15:07;49061.41;;;29.81;100.00